sensor_id;sensor_type;location;lat;lon;timestamp;P1;durP1;ratioP1;P2;durP2;ratioP2
3667;SDS011;24099;47.102;15.440;2022-11-02T05:46:46;1.30;;;1.20;;
3667;SDS011;24099;47.102;15.440;2022-11-02T05:49:15;1.40;;;1.23;;
3667;SDS011;24099;47.102;15.440;2022-11-02T05:51:43;1.80;;;1.45;;
3667;SDS011;24099;47.102;15.440;2022-11-02T05:54:11;1.58;;;1.10;;
3667;SDS011;24099;47.102;15.440;2022-11-02T05:56:39;1.48;;;0.98;;
3667;SDS011;24099;47.102;15.440;2022-11-02T05:59:07;2.05;;;1.10;;
3667;SDS011;24099;47.102;15.440;2022-11-02T06:01:35;1.23;;;1.00;;
3667;SDS011;24099;47.102;15.440;2022-11-02T06:04:05;1.02;;;0.65;;
3667;SDS011;24099;47.102;15.440;2022-11-02T06:06:33;0.80;;;0.77;;
3667;SDS011;24099;47.102;15.440;2022-11-02T06:09:00;13.27;;;1.48;;
3667;SDS011;24099;47.102;15.440;2022-11-02T06:11:28;2.53;;;1.70;;
3667;SDS011;24099;47.102;15.440;2022-11-02T06:13:56;3.60;;;1.08;;
3667;SDS011;24099;47.102;15.440;2022-11-02T06:16:24;2.38;;;1.50;;
3667;SDS011;24099;47.102;15.440;2022-11-02T06:18:52;1.75;;;0.90;;
3667;SDS011;24099;47.102;15.440;2022-11-02T06:21:22;1.13;;;1.08;;
3667;SDS011;24099;47.102;15.440;2022-11-02T06:23:50;1.23;;;1.15;;
3667;SDS011;24099;47.102;15.440;2022-11-02T06:26:17;0.80;;;0.63;;
3667;SDS011;24099;47.102;15.440;2022-11-02T06:28:45;1.92;;;1.27;;
3667;SDS011;24099;47.102;15.440;2022-11-02T06:31:16;3.58;;;1.08;;
3667;SDS011;24099;47.102;15.440;2022-11-02T06:33:44;1.45;;;1.10;;
3667;SDS011;24099;47.102;15.440;2022-11-02T06:36:11;3.38;;;1.20;;
3667;SDS011;24099;47.102;15.440;2022-11-02T06:38:42;4.13;;;1.88;;
3667;SDS011;24099;47.102;15.440;2022-11-02T06:41:10;1.38;;;0.80;;
3667;SDS011;24099;47.102;15.440;2022-11-02T06:43:38;0.85;;;0.82;;
3667;SDS011;24099;47.102;15.440;2022-11-02T06:46:06;0.98;;;0.98;;
3667;SDS011;24099;47.102;15.440;2022-11-02T06:48:34;2.15;;;1.08;;
3667;SDS011;24099;47.102;15.440;2022-11-02T06:51:07;2.50;;;0.90;;
3667;SDS011;24099;47.102;15.440;2022-11-02T06:53:36;2.22;;;1.08;;
3667;SDS011;24099;47.102;15.440;2022-11-02T06:56:05;1.25;;;1.00;;
3667;SDS011;24099;47.102;15.440;2022-11-02T06:58:35;3.75;;;0.65;;
3667;SDS011;24099;47.102;15.440;2022-11-02T07:01:04;5.15;;;1.48;;
3667;SDS011;24099;47.102;15.440;2022-11-02T07:03:32;1.02;;;0.93;;
3667;SDS011;24099;47.102;15.440;2022-11-02T07:06:00;1.15;;;0.82;;
3667;SDS011;24099;47.102;15.440;2022-11-02T07:08:29;9.35;;;1.70;;
3667;SDS011;24099;47.102;15.440;2022-11-02T07:10:57;1.52;;;1.10;;
3667;SDS011;24099;47.102;15.440;2022-11-02T07:13:26;5.20;;;1.23;;
3667;SDS011;24099;47.102;15.440;2022-11-02T07:15:53;3.95;;;1.00;;
3667;SDS011;24099;47.102;15.440;2022-11-02T07:18:21;3.28;;;1.70;;
3667;SDS011;24099;47.102;15.440;2022-11-02T07:20:51;2.75;;;1.33;;
3667;SDS011;24099;47.102;15.440;2022-11-02T07:23:19;0.95;;;0.80;;
3667;SDS011;24099;47.102;15.440;2022-11-02T07:25:48;1.45;;;1.05;;
3667;SDS011;24099;47.102;15.440;2022-11-02T07:28:17;3.42;;;1.23;;
3667;SDS011;24099;47.102;15.440;2022-11-02T07:30:46;1.35;;;1.00;;
3667;SDS011;24099;47.102;15.440;2022-11-02T07:33:14;3.53;;;1.50;;
3667;SDS011;24099;47.102;15.440;2022-11-02T07:35:43;2.75;;;1.10;;
3667;SDS011;24099;47.102;15.440;2022-11-02T07:38:11;0.95;;;0.95;;
3667;SDS011;24099;47.102;15.440;2022-11-02T07:40:39;2.63;;;1.73;;
3667;SDS011;24099;47.102;15.440;2022-11-02T07:43:08;10.10;;;1.45;;
3667;SDS011;24099;47.102;15.440;2022-11-02T07:45:57;6.82;;;3.47;;
3667;SDS011;24099;47.102;15.440;2022-11-02T07:48:27;3.58;;;2.10;;
3667;SDS011;24099;47.102;15.440;2022-11-02T07:50:56;5.05;;;2.53;;
3667;SDS011;24099;47.102;15.440;2022-11-02T07:53:24;10.48;;;3.30;;
3667;SDS011;24099;47.102;15.440;2022-11-02T07:55:52;11.35;;;4.53;;
3667;SDS011;24099;47.102;15.440;2022-11-02T07:58:20;10.02;;;5.18;;
3667;SDS011;24099;47.102;15.440;2022-11-02T08:00:48;19.45;;;4.20;;
3667;SDS011;24099;47.102;15.440;2022-11-02T08:03:17;3.28;;;2.33;;
3667;SDS011;24099;47.102;15.440;2022-11-02T08:05:44;3.33;;;1.75;;
3667;SDS011;24099;47.102;15.440;2022-11-02T08:08:13;1.98;;;1.27;;
3667;SDS011;24099;47.102;15.440;2022-11-02T08:10:44;1.60;;;0.98;;
3667;SDS011;24099;47.102;15.440;2022-11-02T08:13:14;1.40;;;1.30;;
3667;SDS011;24099;47.102;15.440;2022-11-02T08:15:43;1.30;;;1.20;;
3667;SDS011;24099;47.102;15.440;2022-11-02T08:18:15;7.25;;;1.65;;
3667;SDS011;24099;47.102;15.440;2022-11-02T08:20:46;1.65;;;1.00;;
3667;SDS011;24099;47.102;15.440;2022-11-02T08:23:14;1.23;;;1.02;;
3667;SDS011;24099;47.102;15.440;2022-11-02T08:25:44;1.48;;;1.30;;
3667;SDS011;24099;47.102;15.440;2022-11-02T08:28:13;4.32;;;1.88;;
3667;SDS011;24099;47.102;15.440;2022-11-02T08:30:44;2.50;;;1.52;;
3667;SDS011;24099;47.102;15.440;2022-11-02T08:33:12;3.67;;;1.65;;
3667;SDS011;24099;47.102;15.440;2022-11-02T08:35:44;1.50;;;1.38;;
3667;SDS011;24099;47.102;15.440;2022-11-02T08:38:13;1.25;;;1.10;;
3667;SDS011;24099;47.102;15.440;2022-11-02T08:40:41;1.65;;;1.02;;
3667;SDS011;24099;47.102;15.440;2022-11-02T08:43:10;2.60;;;1.02;;
3667;SDS011;24099;47.102;15.440;2022-11-02T08:45:40;1.23;;;0.80;;
3667;SDS011;24099;47.102;15.440;2022-11-02T08:48:09;1.70;;;0.70;;
3667;SDS011;24099;47.102;15.440;2022-11-02T08:50:37;1.13;;;0.90;;
3667;SDS011;24099;47.102;15.440;2022-11-02T08:53:06;1.20;;;0.80;;
3667;SDS011;24099;47.102;15.440;2022-11-02T08:55:34;1.25;;;0.95;;
3667;SDS011;24099;47.102;15.440;2022-11-02T08:58:01;1.08;;;0.85;;
3667;SDS011;24099;47.102;15.440;2022-11-02T09:00:29;0.75;;;0.75;;
3667;SDS011;24099;47.102;15.440;2022-11-02T09:03:00;1.30;;;0.77;;
3667;SDS011;24099;47.102;15.440;2022-11-02T09:05:29;0.60;;;0.60;;
3667;SDS011;24099;47.102;15.440;2022-11-02T09:07:59;1.80;;;1.10;;
3667;SDS011;24099;47.102;15.440;2022-11-02T09:10:31;2.60;;;1.20;;
3667;SDS011;24099;47.102;15.440;2022-11-02T09:13:01;0.70;;;0.70;;
3667;SDS011;24099;47.102;15.440;2022-11-02T09:15:32;2.22;;;1.10;;
3667;SDS011;24099;47.102;15.440;2022-11-02T09:18:01;1.73;;;1.30;;
3667;SDS011;24099;47.102;15.440;2022-11-02T09:20:30;2.60;;;0.90;;
3667;SDS011;24099;47.102;15.440;2022-11-02T09:22:59;2.03;;;1.23;;
3667;SDS011;24099;47.102;15.440;2022-11-02T09:25:27;1.90;;;0.98;;
3667;SDS011;24099;47.102;15.440;2022-11-02T09:27:56;2.58;;;1.42;;
3667;SDS011;24099;47.102;15.440;2022-11-02T09:30:25;0.95;;;0.63;;
3667;SDS011;24099;47.102;15.440;2022-11-02T09:32:57;0.95;;;0.85;;
3667;SDS011;24099;47.102;15.440;2022-11-02T09:35:28;1.45;;;0.85;;
3667;SDS011;24099;47.102;15.440;2022-11-02T09:37:59;1.23;;;0.80;;
3667;SDS011;24099;47.102;15.440;2022-11-02T09:40:28;0.90;;;0.88;;
3667;SDS011;24099;47.102;15.440;2022-11-02T09:43:05;1.35;;;1.00;;
3667;SDS011;24099;47.102;15.440;2022-11-02T09:45:51;2.00;;;1.13;;
3667;SDS011;24099;47.102;15.440;2022-11-02T09:48:25;1.20;;;0.95;;
3667;SDS011;24099;47.102;15.440;2022-11-02T09:50:56;0.88;;;0.88;;
3667;SDS011;24099;47.102;15.440;2022-11-02T09:53:35;0.75;;;0.70;;
3667;SDS011;24099;47.102;15.440;2022-11-02T09:56:15;0.80;;;0.80;;
3667;SDS011;24099;47.102;15.440;2022-11-02T09:58:47;1.35;;;0.80;;
3667;SDS011;24099;47.102;15.440;2022-11-02T10:01:24;0.68;;;0.68;;
3667;SDS011;24099;47.102;15.440;2022-11-02T10:07:36;1.10;;;1.02;;
3667;SDS011;24099;47.102;15.440;2022-11-02T10:10:21;1.02;;;0.98;;
3667;SDS011;24099;47.102;15.440;2022-11-02T10:12:55;0.85;;;0.75;;
3667;SDS011;24099;47.102;15.440;2022-11-02T10:18:04;0.93;;;0.88;;
3667;SDS011;24099;47.102;15.440;2022-11-02T10:20:39;1.20;;;0.95;;
3667;SDS011;24099;47.102;15.440;2022-11-02T10:23:11;1.38;;;0.90;;
3667;SDS011;24099;47.102;15.440;2022-11-02T10:25:43;1.02;;;0.95;;
3667;SDS011;24099;47.102;15.440;2022-11-02T10:28:14;3.60;;;1.35;;
3667;SDS011;24099;47.102;15.440;2022-11-02T10:30:46;2.72;;;1.70;;
3667;SDS011;24099;47.102;15.440;2022-11-02T10:33:16;3.53;;;1.83;;
3667;SDS011;24099;47.102;15.440;2022-11-02T10:35:47;4.05;;;2.28;;
3667;SDS011;24099;47.102;15.440;2022-11-02T10:38:24;5.28;;;2.40;;
3667;SDS011;24099;47.102;15.440;2022-11-02T10:41:09;3.58;;;1.95;;
3667;SDS011;24099;47.102;15.440;2022-11-02T10:43:54;3.65;;;2.30;;
3667;SDS011;24099;47.102;15.440;2022-11-02T10:46:36;1.75;;;1.60;;
3667;SDS011;24099;47.102;15.440;2022-11-02T10:49:20;4.80;;;1.77;;
3667;SDS011;24099;47.102;15.440;2022-11-02T10:52:13;6.07;;;1.90;;
3667;SDS011;24099;47.102;15.440;2022-11-02T10:54:42;2.53;;;1.58;;
3667;SDS011;24099;47.102;15.440;2022-11-02T10:57:11;4.72;;;1.98;;
3667;SDS011;24099;47.102;15.440;2022-11-02T10:59:40;1.23;;;1.13;;
3667;SDS011;24099;47.102;15.440;2022-11-02T11:02:11;6.38;;;1.52;;
3667;SDS011;24099;47.102;15.440;2022-11-02T11:04:40;3.28;;;1.60;;
3667;SDS011;24099;47.102;15.440;2022-11-02T11:07:12;3.85;;;0.93;;
3667;SDS011;24099;47.102;15.440;2022-11-02T11:09:47;2.50;;;1.35;;
3667;SDS011;24099;47.102;15.440;2022-11-02T11:12:22;2.95;;;1.42;;
3667;SDS011;24099;47.102;15.440;2022-11-02T11:14:58;0.93;;;0.82;;
3667;SDS011;24099;47.102;15.440;2022-11-02T11:17:31;1.95;;;1.20;;
3667;SDS011;24099;47.102;15.440;2022-11-02T11:20:02;1.55;;;0.90;;
3667;SDS011;24099;47.102;15.440;2022-11-02T11:22:34;2.00;;;0.93;;
3667;SDS011;24099;47.102;15.440;2022-11-02T11:27:55;2.60;;;1.00;;
3667;SDS011;24099;47.102;15.440;2022-11-02T11:30:25;1.98;;;1.13;;
3667;SDS011;24099;47.102;15.440;2022-11-02T11:32:56;4.03;;;1.13;;
3667;SDS011;24099;47.102;15.440;2022-11-02T11:35:27;1.58;;;0.95;;
3667;SDS011;24099;47.102;15.440;2022-11-02T11:37:59;3.92;;;1.13;;
3667;SDS011;24099;47.102;15.440;2022-11-02T11:40:29;2.08;;;1.10;;
3667;SDS011;24099;47.102;15.440;2022-11-02T11:43:03;2.58;;;0.90;;
3667;SDS011;24099;47.102;15.440;2022-11-02T11:45:36;1.88;;;1.23;;
3667;SDS011;24099;47.102;15.440;2022-11-02T11:48:16;2.40;;;1.00;;
3667;SDS011;24099;47.102;15.440;2022-11-02T11:50:54;0.95;;;0.68;;
3667;SDS011;24099;47.102;15.440;2022-11-02T11:53:22;1.05;;;0.70;;
3667;SDS011;24099;47.102;15.440;2022-11-02T11:55:52;1.60;;;0.63;;
3667;SDS011;24099;47.102;15.440;2022-11-02T11:58:24;1.95;;;1.05;;
3667;SDS011;24099;47.102;15.440;2022-11-02T12:01:03;1.88;;;1.15;;
3667;SDS011;24099;47.102;15.440;2022-11-02T12:03:38;1.98;;;1.13;;
3667;SDS011;24099;47.102;15.440;2022-11-02T12:06:20;0.90;;;0.65;;
3667;SDS011;24099;47.102;15.440;2022-11-02T12:08:57;1.40;;;0.80;;
3667;SDS011;24099;47.102;15.440;2022-11-02T12:11:35;3.05;;;1.17;;
3667;SDS011;24099;47.102;15.440;2022-11-02T12:14:24;0.93;;;0.70;;
3667;SDS011;24099;47.102;15.440;2022-11-02T12:17:24;1.02;;;0.80;;
3667;SDS011;24099;47.102;15.440;2022-11-02T12:20:36;1.23;;;0.77;;
3667;SDS011;24099;47.102;15.440;2022-11-02T12:23:27;3.42;;;1.05;;
3667;SDS011;24099;47.102;15.440;2022-11-02T12:26:22;0.85;;;0.60;;
3667;SDS011;24099;47.102;15.440;2022-11-02T12:29:01;2.65;;;0.95;;
3667;SDS011;24099;47.102;15.440;2022-11-02T12:31:48;1.88;;;1.27;;
3667;SDS011;24099;47.102;15.440;2022-11-02T12:34:39;3.20;;;0.93;;
3667;SDS011;24099;47.102;15.440;2022-11-02T12:37:38;1.17;;;0.93;;
3667;SDS011;24099;47.102;15.440;2022-11-02T12:40:20;1.10;;;0.88;;
3667;SDS011;24099;47.102;15.440;2022-11-02T12:43:19;0.95;;;0.68;;
3667;SDS011;24099;47.102;15.440;2022-11-02T12:46:08;1.00;;;0.82;;
3667;SDS011;24099;47.102;15.440;2022-11-02T12:48:54;2.35;;;1.10;;
3667;SDS011;24099;47.102;15.440;2022-11-02T12:51:37;1.05;;;0.73;;
3667;SDS011;24099;47.102;15.440;2022-11-02T12:54:15;0.65;;;0.65;;
3667;SDS011;24099;47.102;15.440;2022-11-02T12:56:51;1.25;;;0.80;;
3667;SDS011;24099;47.102;15.440;2022-11-02T12:59:20;1.80;;;1.13;;
3667;SDS011;24099;47.102;15.440;2022-11-02T13:01:51;0.60;;;0.60;;
3667;SDS011;24099;47.102;15.440;2022-11-02T13:04:24;0.98;;;0.90;;
3667;SDS011;24099;47.102;15.440;2022-11-02T13:06:58;1.83;;;1.17;;
3667;SDS011;24099;47.102;15.440;2022-11-02T13:09:32;1.70;;;1.05;;
3667;SDS011;24099;47.102;15.440;2022-11-02T13:12:04;1.48;;;0.80;;
3667;SDS011;24099;47.102;15.440;2022-11-02T13:14:38;0.98;;;0.82;;
3667;SDS011;24099;47.102;15.440;2022-11-02T13:17:11;0.80;;;0.60;;
3667;SDS011;24099;47.102;15.440;2022-11-02T13:19:46;3.13;;;0.77;;
3667;SDS011;24099;47.102;15.440;2022-11-02T13:22:19;2.42;;;1.02;;
3667;SDS011;24099;47.102;15.440;2022-11-02T13:24:54;3.60;;;0.60;;
3667;SDS011;24099;47.102;15.440;2022-11-02T13:27:29;0.73;;;0.73;;
3667;SDS011;24099;47.102;15.440;2022-11-02T13:30:01;3.17;;;1.15;;
3667;SDS011;24099;47.102;15.440;2022-11-02T13:32:31;0.70;;;0.70;;
3667;SDS011;24099;47.102;15.440;2022-11-02T13:35:06;0.95;;;0.75;;
3667;SDS011;24099;47.102;15.440;2022-11-02T13:37:44;1.65;;;0.88;;
3667;SDS011;24099;47.102;15.440;2022-11-02T13:40:20;1.20;;;0.88;;
3667;SDS011;24099;47.102;15.440;2022-11-02T13:43:03;0.70;;;0.60;;
3667;SDS011;24099;47.102;15.440;2022-11-02T13:45:51;0.60;;;0.60;;
3667;SDS011;24099;47.102;15.440;2022-11-02T13:48:50;0.88;;;0.75;;
3667;SDS011;24099;47.102;15.440;2022-11-02T13:51:26;0.85;;;0.68;;
3667;SDS011;24099;47.102;15.440;2022-11-02T13:54:01;0.47;;;0.47;;
3667;SDS011;24099;47.102;15.440;2022-11-02T13:56:38;1.13;;;0.70;;
3667;SDS011;24099;47.102;15.440;2022-11-02T13:59:08;1.67;;;0.63;;
3667;SDS011;24099;47.102;15.440;2022-11-02T14:01:46;1.95;;;1.02;;
3667;SDS011;24099;47.102;15.440;2022-11-02T14:04:15;0.75;;;0.50;;
3667;SDS011;24099;47.102;15.440;2022-11-02T14:06:49;0.65;;;0.65;;
3667;SDS011;24099;47.102;15.440;2022-11-02T14:09:23;0.60;;;0.60;;
3667;SDS011;24099;47.102;15.440;2022-11-02T14:12:23;0.80;;;0.80;;
3667;SDS011;24099;47.102;15.440;2022-11-02T14:18:27;0.95;;;0.60;;
3667;SDS011;24099;47.102;15.440;2022-11-02T14:20:56;0.45;;;0.45;;
3667;SDS011;24099;47.102;15.440;2022-11-02T14:23:45;1.20;;;0.63;;
3667;SDS011;24099;47.102;15.440;2022-11-02T14:26:28;3.10;;;0.70;;
3667;SDS011;24099;47.102;15.440;2022-11-02T14:29:36;0.52;;;0.52;;
3667;SDS011;24099;47.102;15.440;2022-11-02T14:32:18;0.50;;;0.50;;
3667;SDS011;24099;47.102;15.440;2022-11-02T14:38:16;0.60;;;0.60;;
3667;SDS011;24099;47.102;15.440;2022-11-02T14:41:06;0.32;;;0.32;;
3667;SDS011;24099;47.102;15.440;2022-11-02T14:46:39;0.47;;;0.47;;
3667;SDS011;24099;47.102;15.440;2022-11-02T14:51:55;0.40;;;0.40;;
3667;SDS011;24099;47.102;15.440;2022-11-02T14:54:28;0.38;;;0.20;;
3667;SDS011;24099;47.102;15.440;2022-11-02T14:57:00;1.15;;;0.93;;
3667;SDS011;24099;47.102;15.440;2022-11-02T14:59:33;1.77;;;0.57;;
3667;SDS011;24099;47.102;15.440;2022-11-02T15:02:11;0.60;;;0.60;;
3667;SDS011;24099;47.102;15.440;2022-11-02T15:04:49;0.45;;;0.45;;
3667;SDS011;24099;47.102;15.440;2022-11-02T15:07:20;1.05;;;0.50;;
3667;SDS011;24099;47.102;15.440;2022-11-02T15:09:57;0.32;;;0.32;;
3667;SDS011;24099;47.102;15.440;2022-11-02T15:12:28;6.82;;;0.65;;
3667;SDS011;24099;47.102;15.440;2022-11-02T15:18:02;3.10;;;1.00;;
3667;SDS011;24099;47.102;15.440;2022-11-02T15:24:00;0.50;;;0.40;;
3667;SDS011;24099;47.102;15.440;2022-11-02T15:26:44;1.35;;;0.60;;
3667;SDS011;24099;47.102;15.440;2022-11-02T15:29:34;0.98;;;0.40;;
3667;SDS011;24099;47.102;15.440;2022-11-02T15:32:10;0.50;;;0.50;;
3667;SDS011;24099;47.102;15.440;2022-11-02T15:34:46;0.50;;;0.50;;
3667;SDS011;24099;47.102;15.440;2022-11-02T15:37:17;2.40;;;0.43;;
3667;SDS011;24099;47.102;15.440;2022-11-02T15:39:48;0.60;;;0.60;;
3667;SDS011;24099;47.102;15.440;2022-11-02T15:42:20;0.65;;;0.60;;
3667;SDS011;24099;47.102;15.440;2022-11-02T15:45:12;0.85;;;0.60;;
3667;SDS011;24099;47.102;15.440;2022-11-02T15:47:58;1.20;;;0.70;;
3667;SDS011;24099;47.102;15.440;2022-11-02T15:50:41;3.10;;;1.45;;
3667;SDS011;24099;47.102;15.440;2022-11-02T15:56:25;2.95;;;1.08;;
3667;SDS011;24099;47.102;15.440;2022-11-02T15:59:11;0.80;;;0.80;;
3667;SDS011;24099;47.102;15.440;2022-11-02T16:02:24;1.35;;;0.55;;
3667;SDS011;24099;47.102;15.440;2022-11-02T16:04:53;0.50;;;0.47;;
3667;SDS011;24099;47.102;15.440;2022-11-02T16:07:25;1.73;;;0.93;;
3667;SDS011;24099;47.102;15.440;2022-11-02T16:10:09;0.52;;;0.52;;
3667;SDS011;24099;47.102;15.440;2022-11-02T16:12:46;0.88;;;0.82;;
3667;SDS011;24099;47.102;15.440;2022-11-02T16:15:22;2.17;;;1.00;;
3667;SDS011;24099;47.102;15.440;2022-11-02T16:17:50;0.80;;;0.60;;
3667;SDS011;24099;47.102;15.440;2022-11-02T16:20:19;0.50;;;0.50;;
3667;SDS011;24099;47.102;15.440;2022-11-02T16:22:53;0.63;;;0.63;;
3667;SDS011;24099;47.102;15.440;2022-11-02T16:25:28;1.95;;;0.90;;
3667;SDS011;24099;47.102;15.440;2022-11-02T16:28:09;2.92;;;0.70;;
3667;SDS011;24099;47.102;15.440;2022-11-02T16:30:56;3.08;;;0.88;;
3667;SDS011;24099;47.102;15.440;2022-11-02T16:33:30;0.60;;;0.60;;
3667;SDS011;24099;47.102;15.440;2022-11-02T16:36:02;0.82;;;0.70;;
3667;SDS011;24099;47.102;15.440;2022-11-02T16:38:33;1.10;;;0.63;;
3667;SDS011;24099;47.102;15.440;2022-11-02T16:41:02;1.48;;;1.10;;
3667;SDS011;24099;47.102;15.440;2022-11-02T16:43:33;0.68;;;0.68;;
3667;SDS011;24099;47.102;15.440;2022-11-02T16:46:02;1.17;;;0.77;;
3667;SDS011;24099;47.102;15.440;2022-11-02T16:48:31;5.00;;;1.08;;
3667;SDS011;24099;47.102;15.440;2022-11-02T16:51:00;2.47;;;0.98;;
3667;SDS011;24099;47.102;15.440;2022-11-02T16:53:31;1.58;;;1.00;;
3667;SDS011;24099;47.102;15.440;2022-11-02T16:56:21;0.60;;;0.60;;
3667;SDS011;24099;47.102;15.440;2022-11-02T16:58:57;0.85;;;0.80;;
3667;SDS011;24099;47.102;15.440;2022-11-02T17:01:28;6.47;;;0.88;;
3667;SDS011;24099;47.102;15.440;2022-11-02T17:04:12;0.98;;;0.82;;
3667;SDS011;24099;47.102;15.440;2022-11-02T17:06:43;0.60;;;0.50;;
3667;SDS011;24099;47.102;15.440;2022-11-02T17:09:20;0.98;;;0.88;;
3667;SDS011;24099;47.102;15.440;2022-11-02T17:11:53;1.55;;;0.75;;
3667;SDS011;24099;47.102;15.440;2022-11-02T17:14:23;3.13;;;1.35;;
3667;SDS011;24099;47.102;15.440;2022-11-02T17:16:56;0.73;;;0.73;;
3667;SDS011;24099;47.102;15.440;2022-11-02T17:19:43;2.58;;;0.70;;
3667;SDS011;24099;47.102;15.440;2022-11-02T17:22:14;0.85;;;0.70;;
3667;SDS011;24099;47.102;15.440;2022-11-02T17:25:00;0.82;;;0.75;;
3667;SDS011;24099;47.102;15.440;2022-11-02T17:27:35;0.77;;;0.77;;
3667;SDS011;24099;47.102;15.440;2022-11-02T17:30:03;0.90;;;0.80;;
3667;SDS011;24099;47.102;15.440;2022-11-02T17:32:33;1.58;;;1.48;;
3667;SDS011;24099;47.102;15.440;2022-11-02T17:35:00;1.77;;;1.13;;
3667;SDS011;24099;47.102;15.440;2022-11-02T17:37:31;2.58;;;0.80;;
3667;SDS011;24099;47.102;15.440;2022-11-02T17:40:02;4.15;;;1.50;;
3667;SDS011;24099;47.102;15.440;2022-11-02T17:42:35;3.63;;;1.25;;
3667;SDS011;24099;47.102;15.440;2022-11-02T17:45:24;1.17;;;1.08;;
3667;SDS011;24099;47.102;15.440;2022-11-02T17:47:54;1.77;;;1.00;;
3667;SDS011;24099;47.102;15.440;2022-11-02T17:50:22;0.55;;;0.55;;
3667;SDS011;24099;47.102;15.440;2022-11-02T17:52:51;0.80;;;0.80;;
3667;SDS011;24099;47.102;15.440;2022-11-02T17:55:21;1.65;;;1.15;;
3667;SDS011;24099;47.102;15.440;2022-11-02T17:57:51;0.75;;;0.75;;
3667;SDS011;24099;47.102;15.440;2022-11-02T18:00:19;4.47;;;1.35;;
3667;SDS011;24099;47.102;15.440;2022-11-02T18:02:48;0.70;;;0.70;;
3667;SDS011;24099;47.102;15.440;2022-11-02T18:05:20;1.58;;;1.05;;
3667;SDS011;24099;47.102;15.440;2022-11-02T18:07:50;2.47;;;0.98;;
3667;SDS011;24099;47.102;15.440;2022-11-02T18:10:18;1.25;;;1.10;;
3667;SDS011;24099;47.102;15.440;2022-11-02T18:12:50;1.00;;;1.00;;
3667;SDS011;24099;47.102;15.440;2022-11-02T18:15:18;3.92;;;1.77;;
3667;SDS011;24099;47.102;15.440;2022-11-02T18:17:48;1.58;;;0.80;;
3667;SDS011;24099;47.102;15.440;2022-11-02T18:20:16;1.05;;;0.80;;
3667;SDS011;24099;47.102;15.440;2022-11-02T18:22:45;0.80;;;0.80;;
3667;SDS011;24099;47.102;15.440;2022-11-02T18:25:14;1.13;;;1.08;;
3667;SDS011;24099;47.102;15.440;2022-11-02T18:27:45;1.35;;;1.10;;
3667;SDS011;24099;47.102;15.440;2022-11-02T18:30:13;1.75;;;1.30;;
3667;SDS011;24099;47.102;15.440;2022-11-02T18:32:43;2.00;;;1.20;;
3667;SDS011;24099;47.102;15.440;2022-11-02T18:35:12;1.92;;;1.40;;
3667;SDS011;24099;47.102;15.440;2022-11-02T18:37:41;2.42;;;1.20;;
3667;SDS011;24099;47.102;15.440;2022-11-02T18:40:10;2.15;;;1.67;;
3667;SDS011;24099;47.102;15.440;2022-11-02T18:42:42;2.38;;;1.27;;
3667;SDS011;24099;47.102;15.440;2022-11-02T18:45:13;8.60;;;2.92;;
3667;SDS011;24099;47.102;15.440;2022-11-02T18:47:41;7.60;;;3.45;;
3667;SDS011;24099;47.102;15.440;2022-11-02T18:50:11;5.20;;;2.38;;
3667;SDS011;24099;47.102;15.440;2022-11-02T18:52:39;10.18;;;2.45;;
3667;SDS011;24099;47.102;15.440;2022-11-02T18:55:16;4.97;;;2.55;;
3667;SDS011;24099;47.102;15.440;2022-11-02T18:57:45;10.40;;;2.78;;
3667;SDS011;24099;47.102;15.440;2022-11-02T19:00:14;3.30;;;2.35;;
3667;SDS011;24099;47.102;15.440;2022-11-02T19:02:42;6.50;;;2.53;;
3667;SDS011;24099;47.102;15.440;2022-11-02T19:05:09;2.85;;;1.90;;
3667;SDS011;24099;47.102;15.440;2022-11-02T19:07:51;5.65;;;2.08;;
3667;SDS011;24099;47.102;15.440;2022-11-02T19:10:36;4.18;;;2.17;;
3667;SDS011;24099;47.102;15.440;2022-11-02T19:13:06;3.05;;;1.70;;
3667;SDS011;24099;47.102;15.440;2022-11-02T19:15:34;3.05;;;1.33;;
3667;SDS011;24099;47.102;15.440;2022-11-02T19:18:02;4.97;;;1.50;;
3667;SDS011;24099;47.102;15.440;2022-11-02T19:20:29;1.30;;;0.60;;
3667;SDS011;24099;47.102;15.440;2022-11-02T19:22:59;1.35;;;0.80;;
3667;SDS011;24099;47.102;15.440;2022-11-02T19:25:26;10.90;;;0.80;;
3667;SDS011;24099;47.102;15.440;2022-11-02T19:27:55;0.50;;;0.50;;
3667;SDS011;24099;47.102;15.440;2022-11-02T19:30:24;0.45;;;0.40;;
3667;SDS011;24099;47.102;15.440;2022-11-02T19:32:51;0.77;;;0.68;;
3667;SDS011;24099;47.102;15.440;2022-11-02T19:35:18;0.40;;;0.40;;
3667;SDS011;24099;47.102;15.440;2022-11-02T19:37:46;0.52;;;0.52;;
3667;SDS011;24099;47.102;15.440;2022-11-02T19:40:13;1.17;;;0.50;;
3667;SDS011;24099;47.102;15.440;2022-11-02T19:42:41;0.57;;;0.30;;
3667;SDS011;24099;47.102;15.440;2022-11-02T19:45:09;3.45;;;0.45;;
3667;SDS011;24099;47.102;15.440;2022-11-02T19:47:42;0.25;;;0.25;;
3667;SDS011;24099;47.102;15.440;2022-11-02T19:50:09;0.30;;;0.30;;
3667;SDS011;24099;47.102;15.440;2022-11-02T19:52:38;0.30;;;0.30;;
3667;SDS011;24099;47.102;15.440;2022-11-02T19:55:06;2.45;;;0.30;;
3667;SDS011;24099;47.102;15.440;2022-11-02T19:57:34;0.28;;;0.28;;
3667;SDS011;24099;47.102;15.440;2022-11-02T20:00:02;0.45;;;0.45;;
3667;SDS011;24099;47.102;15.440;2022-11-02T20:02:34;0.20;;;0.20;;
3667;SDS011;24099;47.102;15.440;2022-11-02T20:05:03;0.40;;;0.40;;
3667;SDS011;24099;47.102;15.440;2022-11-02T20:07:31;5.75;;;0.35;;
3667;SDS011;24099;47.102;15.440;2022-11-02T20:09:59;0.20;;;0.20;;
3667;SDS011;24099;47.102;15.440;2022-11-02T20:12:26;0.30;;;0.30;;
3667;SDS011;24099;47.102;15.440;2022-11-02T20:14:54;3.00;;;0.52;;
3667;SDS011;24099;47.102;15.440;2022-11-02T20:17:21;0.28;;;0.20;;
3667;SDS011;24099;47.102;15.440;2022-11-02T20:19:49;0.30;;;0.30;;
3667;SDS011;24099;47.102;15.440;2022-11-02T20:22:18;0.73;;;0.32;;
3667;SDS011;24099;47.102;15.440;2022-11-02T20:24:46;0.20;;;0.20;;
3667;SDS011;24099;47.102;15.440;2022-11-02T20:27:14;0.30;;;0.30;;
3667;SDS011;24099;47.102;15.440;2022-11-02T20:29:41;0.10;;;0.10;;
3667;SDS011;24099;47.102;15.440;2022-11-02T20:32:10;0.28;;;0.28;;
3667;SDS011;24099;47.102;15.440;2022-11-02T20:34:38;0.20;;;0.20;;
3667;SDS011;24099;47.102;15.440;2022-11-02T20:37:05;1.80;;;0.60;;
3667;SDS011;24099;47.102;15.440;2022-11-02T20:39:34;0.80;;;0.40;;
3667;SDS011;24099;47.102;15.440;2022-11-02T20:42:02;0.45;;;0.43;;
3667;SDS011;24099;47.102;15.440;2022-11-02T20:44:30;0.25;;;0.25;;
3667;SDS011;24099;47.102;15.440;2022-11-02T20:46:57;1.27;;;0.75;;
3667;SDS011;24099;47.102;15.440;2022-11-02T20:49:25;4.50;;;0.40;;
3667;SDS011;24099;47.102;15.440;2022-11-02T20:51:53;0.80;;;0.40;;
3667;SDS011;24099;47.102;15.440;2022-11-02T20:54:21;0.43;;;0.30;;
3667;SDS011;24099;47.102;15.440;2022-11-02T20:56:50;1.25;;;0.68;;
3667;SDS011;24099;47.102;15.440;2022-11-02T20:59:18;0.50;;;0.50;;
3667;SDS011;24099;47.102;15.440;2022-11-02T21:01:47;0.57;;;0.45;;
3667;SDS011;24099;47.102;15.440;2022-11-02T21:04:15;0.40;;;0.40;;
3667;SDS011;24099;47.102;15.440;2022-11-02T21:06:42;2.00;;;0.50;;
3667;SDS011;24099;47.102;15.440;2022-11-02T21:09:10;1.75;;;1.00;;
3667;SDS011;24099;47.102;15.440;2022-11-02T21:11:38;3.95;;;0.40;;
3667;SDS011;24099;47.102;15.440;2022-11-02T21:14:24;0.50;;;0.50;;
3667;SDS011;24099;47.102;15.440;2022-11-02T21:16:52;2.65;;;1.10;;
3667;SDS011;24099;47.102;15.440;2022-11-02T21:19:20;1.58;;;0.55;;
3667;SDS011;24099;47.102;15.440;2022-11-02T21:21:50;1.27;;;0.75;;
3667;SDS011;24099;47.102;15.440;2022-11-02T21:24:17;0.57;;;0.57;;
3667;SDS011;24099;47.102;15.440;2022-11-02T21:26:45;0.40;;;0.40;;
3667;SDS011;24099;47.102;15.440;2022-11-02T21:29:13;0.50;;;0.50;;
3667;SDS011;24099;47.102;15.440;2022-11-02T21:31:44;0.85;;;0.73;;
3667;SDS011;24099;47.102;15.440;2022-11-02T21:34:14;0.50;;;0.50;;
3667;SDS011;24099;47.102;15.440;2022-11-02T21:36:43;1.05;;;0.63;;
3667;SDS011;24099;47.102;15.440;2022-11-02T21:39:12;0.80;;;0.63;;